createdAt,value
2023-02-12T00:02:15.102Z,100191.12
2023-02-12T00:04:48.119Z,100184.42
2023-02-12T00:07:21.475Z,100183.44
2023-02-12T00:10:06.337Z,100181.24
2023-02-12T00:12:45.025Z,100171.04
2023-02-12T00:15:23.651Z,100177.30
2023-02-12T00:18:01.994Z,100172.34
2023-02-12T00:20:45.334Z,100175.45
2023-02-12T00:23:23.627Z,100170.10
2023-02-12T00:25:58.832Z,100173.42
2023-02-12T00:28:34.655Z,100166.90
2023-02-12T00:31:23.550Z,100160.78
2023-02-12T00:33:59.486Z,100166.02
2023-02-12T00:45:56.171Z,100166.82
2023-02-12T00:49:24.678Z,100161.95
2023-02-12T00:52:01.277Z,100152.88
2023-02-12T00:54:33.114Z,100148.25
2023-02-12T00:57:10.596Z,100154.52
2023-02-12T01:00:55.622Z,100154.13
2023-02-12T01:09:05.835Z,100153.33
2023-02-12T01:25:44.365Z,100155.88
2023-02-12T01:28:54.072Z,100150.88
2023-02-12T01:31:33.533Z,100152.43
2023-02-12T01:34:10.924Z,100150.06
2023-02-12T01:36:45.587Z,100144.40
2023-02-12T01:39:46.941Z,100140.92
2023-02-12T01:42:50.858Z,100147.73
2023-02-12T01:45:59.740Z,100144.81
2023-02-12T01:48:47.077Z,100149.26
2023-02-12T01:51:44.360Z,100146.18
2023-02-12T02:14:49.375Z,100174.71
2023-02-12T02:18:03.812Z,100179.36
2023-02-12T02:21:37.364Z,100175.74
2023-02-12T02:25:02.256Z,100182.66
2023-02-12T02:28:16.786Z,100187.09
2023-02-12T02:31:10.616Z,100189.43
2023-02-12T02:38:40.028Z,100211.81
2023-02-12T02:42:23.440Z,100215.02
2023-02-12T02:45:25.435Z,100205.63
2023-02-12T02:49:11.616Z,100216.05
2023-02-12T02:51:50.160Z,100224.48
2023-02-12T02:55:31.530Z,100239.20
2023-02-12T02:58:32.293Z,100238.92
2023-02-12T03:01:30.746Z,100230.80
2023-02-12T03:04:13.054Z,100244.41
2023-02-12T03:08:09.612Z,100249.87
2023-02-12T03:10:52.731Z,100251.73
2023-02-12T03:13:40.976Z,100255.05
2023-02-12T03:17:05.632Z,100273.40
2023-02-12T03:20:35.555Z,100276.60
2023-02-12T03:23:19.481Z,100281.59
2023-02-12T03:27:10.126Z,100296.87
2023-02-12T03:29:51.877Z,100290.58
2023-02-12T03:33:13.534Z,100302.15
2023-02-12T03:37:00.628Z,100302.18
2023-02-12T03:53:53.582Z,100333.14
2023-02-12T03:56:38.448Z,100345.95
2023-02-12T03:59:18.390Z,100341.64
2023-02-12T04:02:44.368Z,100352.05
2023-02-12T04:05:31.517Z,100358.02
2023-02-12T04:08:09.837Z,100371.73
2023-02-12T04:10:49.488Z,100384.48
2023-02-12T04:14:05.336Z,100369.52
2023-02-12T04:17:09.695Z,100360.86
2023-02-12T04:20:04.508Z,100381.20
2023-02-12T04:23:00.011Z,100404.14
2023-02-12T04:26:16.499Z,100407.94
2023-02-12T04:29:21.395Z,100416.70
2023-02-12T04:36:43.756Z,100430.68
2023-02-12T04:40:03.580Z,100439.96
2023-02-12T04:48:24.059Z,100478.59
2023-02-12T04:55:08.590Z,100500.99
2023-02-12T04:58:33.161Z,100507.88
2023-02-12T05:29:51.996Z,100608.91
2023-02-12T05:56:54.774Z,100684.39
2023-02-12T06:04:19.131Z,100689.52
2023-02-12T06:07:14.681Z,100684.97
2023-02-12T06:10:21.653Z,100711.95
2023-02-12T06:12:57.364Z,100709.84
2023-02-12T06:15:36.646Z,100713.70
2023-02-12T06:18:25.091Z,100701.95
2023-02-12T06:21:00.187Z,100706.75
2023-02-12T06:23:30.961Z,100723.11
2023-02-12T06:26:04.499Z,100728.27
2023-02-12T06:33:00.793Z,100746.40
2023-02-12T06:35:32.304Z,100765.14
2023-02-12T06:38:12.033Z,100761.33
2023-02-12T06:40:46.676Z,100775.91
2023-02-12T06:43:17.727Z,100778.92
2023-02-12T06:45:47.956Z,100781.72
2023-02-12T06:48:32.919Z,100783.52
2023-02-12T06:51:24.884Z,100791.03
2023-02-12T06:54:32.006Z,100788.27
2023-02-12T06:57:04.034Z,100803.36
2023-02-12T06:59:39.818Z,100799.75
2023-02-12T07:02:19.063Z,100800.43
2023-02-12T07:05:22.862Z,100808.54
2023-02-12T07:08:22.005Z,100820.46
2023-02-12T07:11:24.643Z,100819.48
2023-02-12T07:14:05.571Z,100818.26
2023-02-12T07:17:05.220Z,100830.09
2023-02-12T07:19:35.304Z,100837.83
2023-02-12T07:22:03.644Z,100844.56
2023-02-12T07:24:41.201Z,100853.17
2023-02-12T07:27:14.678Z,100853.98
2023-02-12T07:29:52.291Z,100864.62
2023-02-12T07:32:50.715Z,100872.44
2023-02-12T07:36:08.489Z,100859.40
2023-02-12T07:38:44.970Z,100875.83
2023-02-12T07:41:20.544Z,100866.70
2023-02-12T07:43:59.763Z,100891.64
2023-02-12T07:46:37.505Z,100884.93
2023-02-12T07:49:08.341Z,100894.05
2023-02-12T07:51:38.062Z,100901.30
2023-02-12T07:54:10.935Z,100904.34
2023-02-12T07:56:46.473Z,100932.98
2023-02-12T07:59:18.314Z,100948.85
2023-02-12T08:01:51.051Z,100923.27
2023-02-12T08:04:37.016Z,100941.89
2023-02-12T08:07:45.571Z,100940.59
2023-02-12T08:10:46.263Z,100941.33
2023-02-12T08:13:16.156Z,100948.23
2023-02-12T08:16:02.985Z,100954.81
2023-02-12T08:18:36.509Z,100942.94
2023-02-12T08:21:34.683Z,100948.41
2023-02-12T08:24:09.383Z,100942.71
2023-02-12T08:26:39.533Z,100956.30
2023-02-12T08:29:18.128Z,100966.09
2023-02-12T08:31:57.709Z,100975.05
2023-02-12T08:34:36.965Z,100961.17
2023-02-12T08:37:13.076Z,100993.21
2023-02-12T08:39:47.156Z,100974.36
2023-02-12T08:42:25.237Z,100975.59
2023-02-12T08:44:59.965Z,100976.17
2023-02-12T08:48:00.867Z,100992.52
2023-02-12T08:50:52.702Z,100997.05
2023-02-12T08:53:26.768Z,100996.70
2023-02-12T08:55:59.033Z,101007.75
2023-02-12T08:58:33.071Z,101019.16
2023-02-12T09:01:04.111Z,101009.61
2023-02-12T09:03:45.109Z,101010.59
2023-02-12T09:06:18.017Z,101010.48
2023-02-12T09:08:58.090Z,101015.81
2023-02-12T09:11:55.385Z,101010.69
2023-02-12T09:14:35.313Z,101020.27
2023-02-12T09:17:37.356Z,101025.52
2023-02-12T09:20:11.431Z,101022.34
2023-02-12T09:23:04.188Z,101037.46
2023-02-12T09:25:35.876Z,101026.52
2023-02-12T09:28:03.355Z,101050.19
2023-02-12T09:30:46.109Z,101074.64
2023-02-12T09:33:16.628Z,101035.29
2023-02-12T09:35:46.842Z,101046.48
2023-02-12T09:38:15.249Z,101062.56
2023-02-12T09:41:14.976Z,101059.17
2023-02-12T09:44:01.116Z,101061.92
2023-02-12T09:47:22.264Z,101057.28
2023-02-12T09:50:28.593Z,101057.01
2023-02-12T09:53:12.218Z,101065.48
2023-02-12T09:55:49.750Z,101072.27
2023-02-12T09:58:50.020Z,101079.23
2023-02-12T10:01:21.676Z,101080.92
2023-02-12T10:03:54.785Z,101070.52
2023-02-12T10:06:51.500Z,101061.67
2023-02-12T10:10:08.200Z,101065.62
2023-02-12T10:12:47.254Z,101057.52
2023-02-12T10:15:30.010Z,101076.20
2023-02-12T10:18:26.512Z,101093.16
2023-02-12T10:21:17.522Z,101077.46
2023-02-12T10:24:57.457Z,101076.07
2023-02-12T10:27:48.788Z,101078.68
2023-02-12T10:30:42.731Z,101084.70
2023-02-12T10:33:21.297Z,101074.96
2023-02-12T10:35:58.788Z,101082.75
2023-02-12T10:38:59.351Z,101078.49
2023-02-12T10:41:38.464Z,101079.06
2023-02-12T10:44:13.575Z,101085.77
2023-02-12T10:47:14.318Z,101094.38
2023-02-12T10:49:55.417Z,101101.11
2023-02-12T10:53:18.388Z,101090.23
2023-02-12T10:56:22.813Z,101078.76
2023-02-12T10:59:01.954Z,101079.79
2023-02-12T11:02:00.611Z,101072.99
2023-02-12T11:04:39.879Z,101099.17
2023-02-12T11:07:14.419Z,101068.73
2023-02-12T11:09:51.683Z,101079.30
2023-02-12T11:12:47.631Z,101070.02
2023-02-12T11:15:28.524Z,101089.96
2023-02-12T11:18:07.913Z,101072.00
2023-02-12T11:21:08.883Z,101074.55
2023-02-12T11:23:44.640Z,101069.94
2023-02-12T11:26:24.501Z,101080.64
2023-02-12T11:29:16.954Z,101116.72
2023-02-12T11:32:00.405Z,101094.98
2023-02-12T11:34:30.782Z,101094.83
2023-02-12T11:37:14.856Z,101081.51
2023-02-12T11:39:50.612Z,101073.77
2023-02-12T11:42:22.685Z,101077.36
2023-02-12T11:45:02.448Z,101090.17
2023-02-12T11:47:33.506Z,101085.94
2023-02-12T11:50:32.086Z,101062.95
2023-02-12T11:53:08.716Z,101071.50
2023-02-12T11:55:39.133Z,101091.77
2023-02-12T11:58:16.892Z,101079.06
2023-02-12T12:00:56.918Z,101073.73
2023-02-12T12:03:57.726Z,101083.81
2023-02-12T12:06:32.267Z,101075.42
2023-02-12T12:09:09.852Z,101081.30
2023-02-12T12:19:36.597Z,101076.48
2023-02-12T12:25:56.966Z,101064.88
2023-02-12T12:29:25.792Z,101089.10
2023-02-12T12:32:02.137Z,101074.80
2023-02-12T12:34:36.763Z,101075.23
2023-02-12T12:37:19.079Z,101068.70
2023-02-12T12:40:54.132Z,101092.04
2023-02-12T12:43:42.371Z,101091.89
2023-02-12T12:46:48.189Z,101085.20
2023-02-12T12:49:56.199Z,101099.58
2023-02-12T12:52:47.356Z,101093.23
2023-02-12T12:56:04.996Z,101090.02
2023-02-12T12:59:21.275Z,101092.45
2023-02-12T13:02:17.420Z,101086.89
2023-02-12T13:05:24.436Z,101087.94
2023-02-12T13:08:05.071Z,101113.79
2023-02-12T13:10:49.081Z,101091.39
2023-02-12T13:13:41.886Z,101103.42
2023-02-12T13:16:42.168Z,101111.13
2023-02-12T13:19:20.717Z,101106.63
2023-02-12T13:21:59.282Z,101091.32
2023-02-12T13:25:02.556Z,101094.30
2023-02-12T13:27:37.110Z,101092.54
2023-02-12T13:30:19.275Z,101101.55
2023-02-12T13:32:59.710Z,101111.48
2023-02-12T13:35:32.219Z,101096.90
2023-02-12T13:38:06.338Z,101103.43
2023-02-12T13:40:37.593Z,101101.83
2023-02-12T13:43:30.114Z,101108.71
2023-02-12T13:46:47.151Z,101123.32
2023-02-12T13:49:35.324Z,101126.09
2023-02-12T13:52:15.099Z,101136.93
2023-02-12T13:54:47.564Z,101171.96
2023-02-12T13:57:43.779Z,101139.25
2023-02-12T14:00:58.656Z,101148.70
2023-02-12T14:03:29.789Z,101149.17
2023-02-12T14:06:21.246Z,101166.70
2023-02-12T14:09:13.718Z,101168.81
2023-02-12T14:11:51.738Z,101148.55
2023-02-12T14:14:49.487Z,101158.39
2023-02-12T14:17:37.725Z,101170.18
2023-02-12T14:20:22.667Z,101170.34
2023-02-12T14:22:58.934Z,101168.30
2023-02-12T14:25:33.284Z,101168.95
2023-02-12T14:28:42.537Z,101176.05
2023-02-12T14:31:32.019Z,101191.07
2023-02-12T14:34:16.942Z,101192.45
2023-02-12T14:36:50.638Z,101191.31
2023-02-12T14:39:27.123Z,101190.83
2023-02-12T14:42:19.545Z,101206.95
2023-02-12T14:44:59.771Z,101213.02
2023-02-12T14:47:50.737Z,101212.77
2023-02-12T14:50:50.720Z,101199.62
2023-02-12T14:53:33.574Z,101206.89
2023-02-12T14:56:09.538Z,101220.77
2023-02-12T14:58:41.030Z,101226.02
2023-02-12T15:01:15.293Z,101211.97
2023-02-12T15:03:53.259Z,101216.09
2023-02-12T15:06:27.934Z,101234.39
2023-02-12T15:09:13.622Z,101233.79
2023-02-12T15:12:36.518Z,101234.39
2023-02-12T15:15:40.092Z,101243.02
2023-02-12T15:18:46.155Z,101253.77
2023-02-12T15:21:30.131Z,101240.61
2023-02-12T15:24:14.558Z,101249.20
2023-02-12T15:26:52.068Z,101246.23
2023-02-12T15:29:29.719Z,101257.05
2023-02-12T15:32:05.084Z,101276.60
2023-02-12T15:34:43.239Z,101253.04
2023-02-12T15:37:23.959Z,101264.75
2023-02-12T15:40:27.256Z,101263.09
2023-02-12T15:43:22.588Z,101266.40
2023-02-12T15:45:56.631Z,101289.90
2023-02-12T15:48:35.399Z,101287.00
2023-02-12T15:51:41.753Z,101296.84
2023-02-12T15:54:13.635Z,101298.64
2023-02-12T15:56:50.320Z,101310.91
2023-02-12T15:59:29.087Z,101308.50
2023-02-12T16:02:02.667Z,101322.15
2023-02-12T16:04:38.139Z,101304.45
2023-02-12T16:07:10.109Z,101309.80
2023-02-12T16:09:47.593Z,101312.64
2023-02-12T16:12:22.652Z,101314.27
2023-02-12T16:15:06.277Z,101326.54
2023-02-12T16:17:40.419Z,101340.99
2023-02-12T16:20:25.723Z,101327.93
2023-02-12T16:22:57.053Z,101330.27
2023-02-12T16:25:33.221Z,101337.13
2023-02-12T16:28:33.813Z,101339.59
2023-02-12T16:31:31.251Z,101340.46
2023-02-12T16:34:36.861Z,101343.56
2023-02-12T16:37:43.792Z,101345.55
2023-02-12T16:40:27.031Z,101340.70
2023-02-12T16:43:04.305Z,101346.61
2023-02-12T16:45:36.665Z,101351.98
2023-02-12T16:48:10.466Z,101353.24
2023-02-12T16:51:09.816Z,101373.40
2023-02-12T16:53:49.476Z,101357.23
2023-02-12T16:56:22.372Z,101365.31
2023-02-12T16:58:56.503Z,101376.48
2023-02-12T17:01:30.426Z,101373.67
2023-02-12T17:04:02.591Z,101362.77
2023-02-12T17:06:35.863Z,101369.50
2023-02-12T17:09:11.000Z,101375.52
2023-02-12T17:11:46.480Z,101372.96
2023-02-12T17:14:20.378Z,101372.89
2023-02-12T17:16:54.905Z,101373.31
2023-02-12T17:19:24.313Z,101382.77
2023-02-12T17:21:59.047Z,101385.95
2023-02-12T17:24:31.222Z,101390.40
2023-02-12T17:27:02.809Z,101401.87
2023-02-12T17:29:39.035Z,101394.41
2023-02-12T17:32:10.457Z,101395.02
2023-02-12T17:34:48.483Z,101405.30
2023-02-12T17:37:53.206Z,101402.52
2023-02-12T17:40:34.439Z,101409.13
2023-02-12T17:43:27.424Z,101408.06
2023-02-12T17:46:01.492Z,101413.77
2023-02-12T17:48:31.415Z,101409.48
2023-02-12T17:51:04.889Z,101418.79
2023-02-12T17:53:39.897Z,101414.30
2023-02-12T17:56:16.860Z,101419.03
2023-02-12T17:58:57.326Z,101409.73
2023-02-12T18:01:29.524Z,101417.06
2023-02-12T18:04:11.160Z,101417.08
2023-02-12T18:06:50.837Z,101415.58
2023-02-12T18:09:21.401Z,101423.10
2023-02-12T18:13:20.307Z,101437.18
2023-02-12T18:16:19.007Z,101432.38
2023-02-12T18:18:55.577Z,101438.45
2023-02-12T18:21:48.508Z,101442.90
2023-02-12T18:24:33.566Z,101447.89
2023-02-12T18:28:02.384Z,101451.96
2023-02-12T18:30:56.376Z,101465.64
2023-02-12T18:33:50.223Z,101468.14
2023-02-12T18:36:23.382Z,101471.81
2023-02-12T18:39:01.516Z,101469.44
2023-02-12T18:42:00.912Z,101467.20
2023-02-12T18:45:00.608Z,101474.84
2023-02-12T18:48:44.386Z,101475.90
2023-02-12T18:51:22.961Z,101475.52
2023-02-12T18:54:23.993Z,101475.80
2023-02-12T18:57:25.854Z,101475.20
2023-02-12T18:59:58.890Z,101480.52
2023-02-12T19:02:39.644Z,101481.63
2023-02-12T19:05:37.381Z,101481.31
2023-02-12T19:08:14.059Z,101476.26
2023-02-12T19:11:18.274Z,101488.28
2023-02-12T19:13:56.564Z,101482.73
2023-02-12T19:16:33.679Z,101482.91
2023-02-12T19:19:25.677Z,101490.92
2023-02-12T19:22:02.700Z,101491.10
2023-02-12T19:24:46.972Z,101496.70
2023-02-12T19:27:30.802Z,101484.41
2023-02-12T19:30:03.973Z,101485.35
2023-02-12T19:33:01.020Z,101492.77
2023-02-12T19:35:36.692Z,101497.40
2023-02-12T19:38:19.461Z,101489.98
2023-02-12T19:40:53.542Z,101512.16
2023-02-12T19:43:29.756Z,101501.42
2023-02-12T19:46:19.074Z,101509.94
2023-02-12T19:48:58.687Z,101512.62
2023-02-12T19:51:51.535Z,101525.43
2023-02-12T19:54:26.377Z,101515.05
2023-02-12T19:57:08.730Z,101514.06
2023-02-12T19:59:46.796Z,101531.20
2023-02-12T20:02:17.846Z,101522.20
2023-02-12T20:05:00.280Z,101530.22
2023-02-12T20:07:39.766Z,101518.23
2023-02-12T20:10:14.828Z,101519.70
2023-02-12T20:12:52.453Z,101514.88
2023-02-12T20:15:26.967Z,101516.81
2023-02-12T20:17:59.611Z,101518.91
2023-02-12T20:21:02.077Z,101530.95
2023-02-12T20:23:40.123Z,101531.84
2023-02-12T20:26:22.830Z,101534.56
2023-02-12T20:29:06.896Z,101539.11
2023-02-12T20:31:46.033Z,101534.64
2023-02-12T20:34:20.552Z,101538.08
2023-02-12T20:37:12.111Z,101548.14
2023-02-12T20:40:28.502Z,101541.92
2023-02-12T20:43:00.123Z,101549.70
2023-02-12T20:45:37.203Z,101541.12
2023-02-12T20:48:09.047Z,101549.17
2023-02-12T20:50:42.379Z,101541.75
2023-02-12T20:53:30.078Z,101544.27
2023-02-12T20:56:09.879Z,101543.16
2023-02-12T20:59:01.976Z,101534.94
2023-02-12T21:02:11.849Z,101545.11
2023-02-12T21:05:41.504Z,101547.93
2023-02-12T21:08:24.038Z,101535.70
2023-02-12T21:11:02.963Z,101540.35
2023-02-12T21:14:12.461Z,101544.60
2023-02-12T21:16:56.038Z,101522.52
2023-02-12T21:19:35.289Z,101530.71
2023-02-12T21:22:07.872Z,101531.84
2023-02-12T21:24:41.247Z,101533.64
2023-02-12T21:27:40.838Z,101534.71
2023-02-12T21:30:19.931Z,101542.91
2023-02-12T21:32:55.860Z,101545.23
2023-02-12T21:35:35.517Z,101556.66
2023-02-12T21:38:07.127Z,101558.17
2023-02-12T21:40:38.813Z,101560.30
2023-02-12T21:43:17.054Z,101558.05
2023-02-12T21:45:59.963Z,101558.87
2023-02-12T21:49:27.843Z,101558.02
2023-02-12T21:52:28.392Z,101561.34
2023-02-12T21:55:09.590Z,101568.55
2023-02-12T21:58:08.886Z,101570.34
2023-02-12T22:00:46.006Z,101555.52
2023-02-12T22:03:22.419Z,101570.41
2023-02-12T22:05:53.621Z,101573.52
2023-02-12T22:08:52.498Z,101568.68
2023-02-12T22:11:24.817Z,101570.52
2023-02-12T22:14:00.361Z,101572.58
2023-02-12T22:17:04.797Z,101571.30
2023-02-12T22:19:51.982Z,101576.41
2023-02-12T22:23:42.068Z,101567.80
2023-02-12T22:26:37.707Z,101563.13
2023-02-12T22:29:17.508Z,101560.42
2023-02-12T22:31:52.667Z,101559.25
2023-02-12T22:34:58.621Z,101554.38
2023-02-12T22:37:39.982Z,101544.09
2023-02-12T22:40:18.383Z,101552.27
2023-02-12T22:43:22.954Z,101543.31
2023-02-12T22:46:09.212Z,101543.14
2023-02-12T22:48:57.481Z,101540.96
2023-02-12T22:51:31.213Z,101554.39
2023-02-12T22:54:14.940Z,101554.77
2023-02-12T22:57:34.410Z,101557.30
2023-02-12T23:00:33.602Z,101552.81
2023-02-12T23:03:16.003Z,101561.89
2023-02-12T23:05:46.800Z,101566.00
2023-02-12T23:08:21.062Z,101564.30
2023-02-12T23:10:58.131Z,101559.98
2023-02-12T23:13:35.587Z,101558.19
2023-02-12T23:16:11.895Z,101560.55
2023-02-12T23:18:43.102Z,101558.92
2023-02-12T23:21:39.653Z,101558.83
2023-02-12T23:24:14.060Z,101552.80
2023-02-12T23:27:09.812Z,101561.91
2023-02-12T23:29:45.658Z,101566.95
2023-02-12T23:32:42.427Z,101566.14
2023-02-12T23:35:15.461Z,101561.86
2023-02-12T23:38:00.337Z,101577.04
2023-02-12T23:40:33.247Z,101576.52
2023-02-12T23:43:11.146Z,101572.77
2023-02-12T23:45:48.304Z,101574.02
2023-02-12T23:48:28.292Z,101575.30
2023-02-12T23:51:17.124Z,101571.92
2023-02-12T23:54:50.634Z,101575.98
2023-02-12T23:57:21.831Z,101576.38
